sensor_id;sensor_type;location;lat;lon;timestamp;temperature;humidity
18101;DHT22;9177;49.156;8.142;2022-09-17T00:00:36;22.20;96.90
18101;DHT22;9177;49.156;8.142;2022-09-17T00:03:03;22.10;96.90
18101;DHT22;9177;49.156;8.142;2022-09-17T00:05:30;22.10;96.90
18101;DHT22;9177;49.156;8.142;2022-09-17T00:07:57;22.10;96.90
18101;DHT22;9177;49.156;8.142;2022-09-17T00:10:24;22.10;96.90
18101;DHT22;9177;49.156;8.142;2022-09-17T00:12:51;22.10;96.90
18101;DHT22;9177;49.156;8.142;2022-09-17T00:15:18;22.10;96.90
18101;DHT22;9177;49.156;8.142;2022-09-17T00:17:53;22.10;96.90
18101;DHT22;9177;49.156;8.142;2022-09-17T00:20:23;22.10;96.90
18101;DHT22;9177;49.156;8.142;2022-09-17T00:22:51;22.10;96.90
18101;DHT22;9177;49.156;8.142;2022-09-17T00:25:18;22.10;96.90
18101;DHT22;9177;49.156;8.142;2022-09-17T00:27:45;22.10;96.90
18101;DHT22;9177;49.156;8.142;2022-09-17T00:30:13;22.10;97.30
18101;DHT22;9177;49.156;8.142;2022-09-17T00:32:40;22.10;97.00
18101;DHT22;9177;49.156;8.142;2022-09-17T00:35:08;22.10;97.00
18101;DHT22;9177;49.156;8.142;2022-09-17T00:37:36;22.10;96.90
18101;DHT22;9177;49.156;8.142;2022-09-17T00:40:03;22.10;97.00
18101;DHT22;9177;49.156;8.142;2022-09-17T00:42:34;22.10;97.00
18101;DHT22;9177;49.156;8.142;2022-09-17T00:45:01;22.10;97.00
18101;DHT22;9177;49.156;8.142;2022-09-17T00:47:30;22.10;97.00
18101;DHT22;9177;49.156;8.142;2022-09-17T00:50:00;22.10;97.00
18101;DHT22;9177;49.156;8.142;2022-09-17T00:52:31;22.10;97.00
18101;DHT22;9177;49.156;8.142;2022-09-17T00:55:06;22.10;97.00
18101;DHT22;9177;49.156;8.142;2022-09-17T00:57:35;22.10;97.00
18101;DHT22;9177;49.156;8.142;2022-09-17T01:00:04;22.10;97.00
18101;DHT22;9177;49.156;8.142;2022-09-17T01:02:32;22.10;97.10
18101;DHT22;9177;49.156;8.142;2022-09-17T01:04:58;22.10;97.00
18101;DHT22;9177;49.156;8.142;2022-09-17T01:07:45;22.10;97.00
18101;DHT22;9177;49.156;8.142;2022-09-17T01:10:22;22.10;97.00
18101;DHT22;9177;49.156;8.142;2022-09-17T01:13:01;22.10;97.00
18101;DHT22;9177;49.156;8.142;2022-09-17T01:15:36;22.10;97.10
18101;DHT22;9177;49.156;8.142;2022-09-17T01:18:19;22.10;97.00
18101;DHT22;9177;49.156;8.142;2022-09-17T01:21:14;22.10;97.10
18101;DHT22;9177;49.156;8.142;2022-09-17T01:24:00;22.10;97.10
18101;DHT22;9177;49.156;8.142;2022-09-17T01:27:08;22.10;97.10
18101;DHT22;9177;49.156;8.142;2022-09-17T01:29:54;22.10;97.00
18101;DHT22;9177;49.156;8.142;2022-09-17T01:32:30;22.10;97.10
18101;DHT22;9177;49.156;8.142;2022-09-17T01:35:03;22.10;97.40
18101;DHT22;9177;49.156;8.142;2022-09-17T01:37:36;22.10;97.10
18101;DHT22;9177;49.156;8.142;2022-09-17T01:40:07;22.10;97.10
18101;DHT22;9177;49.156;8.142;2022-09-17T01:42:41;22.10;97.10
18101;DHT22;9177;49.156;8.142;2022-09-17T01:45:18;22.10;97.10
18101;DHT22;9177;49.156;8.142;2022-09-17T01:47:54;22.10;97.10
18101;DHT22;9177;49.156;8.142;2022-09-17T01:50:25;22.10;97.10
18101;DHT22;9177;49.156;8.142;2022-09-17T01:52:55;22.10;97.10
18101;DHT22;9177;49.156;8.142;2022-09-17T01:55:24;22.10;97.10
18101;DHT22;9177;49.156;8.142;2022-09-17T01:57:55;22.10;97.10
18101;DHT22;9177;49.156;8.142;2022-09-17T02:00:24;22.10;97.10
18101;DHT22;9177;49.156;8.142;2022-09-17T02:02:57;22.10;97.10
18101;DHT22;9177;49.156;8.142;2022-09-17T02:05:28;22.00;97.10
18101;DHT22;9177;49.156;8.142;2022-09-17T02:08:01;22.10;97.10
18101;DHT22;9177;49.156;8.142;2022-09-17T02:10:34;22.00;97.10
18101;DHT22;9177;49.156;8.142;2022-09-17T02:13:06;22.00;97.10
18101;DHT22;9177;49.156;8.142;2022-09-17T02:15:36;22.00;97.10
18101;DHT22;9177;49.156;8.142;2022-09-17T02:18:10;22.00;97.10
18101;DHT22;9177;49.156;8.142;2022-09-17T02:20:44;22.00;97.10
18101;DHT22;9177;49.156;8.142;2022-09-17T02:23:14;22.00;97.10
18101;DHT22;9177;49.156;8.142;2022-09-17T02:25:47;22.00;97.10
18101;DHT22;9177;49.156;8.142;2022-09-17T02:28:21;22.00;97.10
18101;DHT22;9177;49.156;8.142;2022-09-17T02:30:50;22.00;97.10
18101;DHT22;9177;49.156;8.142;2022-09-17T02:33:19;22.00;97.10
18101;DHT22;9177;49.156;8.142;2022-09-17T02:35:47;22.00;97.10
18101;DHT22;9177;49.156;8.142;2022-09-17T02:38:21;22.00;97.10
18101;DHT22;9177;49.156;8.142;2022-09-17T02:41:03;22.00;97.10
18101;DHT22;9177;49.156;8.142;2022-09-17T02:43:37;22.00;97.10
18101;DHT22;9177;49.156;8.142;2022-09-17T02:46:19;22.00;97.10
18101;DHT22;9177;49.156;8.142;2022-09-17T02:49:02;22.00;97.10
18101;DHT22;9177;49.156;8.142;2022-09-17T02:51:35;22.00;97.10
18101;DHT22;9177;49.156;8.142;2022-09-17T02:54:15;22.00;97.20
18101;DHT22;9177;49.156;8.142;2022-09-17T02:56:47;22.00;97.20
18101;DHT22;9177;49.156;8.142;2022-09-17T02:59:18;22.00;97.20
18101;DHT22;9177;49.156;8.142;2022-09-17T03:01:55;22.00;97.10
18101;DHT22;9177;49.156;8.142;2022-09-17T03:04:27;22.00;97.10
18101;DHT22;9177;49.156;8.142;2022-09-17T03:06:55;22.00;97.20
18101;DHT22;9177;49.156;8.142;2022-09-17T03:09:24;22.00;97.10
18101;DHT22;9177;49.156;8.142;2022-09-17T03:11:50;22.00;97.20
18101;DHT22;9177;49.156;8.142;2022-09-17T03:14:17;22.00;97.20
18101;DHT22;9177;49.156;8.142;2022-09-17T03:16:45;22.00;97.20
18101;DHT22;9177;49.156;8.142;2022-09-17T03:19:12;22.00;97.20
18101;DHT22;9177;49.156;8.142;2022-09-17T03:21:40;22.00;97.20
18101;DHT22;9177;49.156;8.142;2022-09-17T03:24:07;22.00;97.10
18101;DHT22;9177;49.156;8.142;2022-09-17T03:26:36;21.90;97.10
18101;DHT22;9177;49.156;8.142;2022-09-17T03:29:03;22.00;97.20
18101;DHT22;9177;49.156;8.142;2022-09-17T03:31:30;22.00;97.10
18101;DHT22;9177;49.156;8.142;2022-09-17T03:33:57;22.00;97.20
18101;DHT22;9177;49.156;8.142;2022-09-17T03:36:24;22.00;97.20
18101;DHT22;9177;49.156;8.142;2022-09-17T03:38:54;21.90;97.10
18101;DHT22;9177;49.156;8.142;2022-09-17T03:41:21;21.90;97.10
18101;DHT22;9177;49.156;8.142;2022-09-17T03:43:48;21.90;97.10
18101;DHT22;9177;49.156;8.142;2022-09-17T03:46:15;21.90;97.10
18101;DHT22;9177;49.156;8.142;2022-09-17T03:48:42;21.90;97.10
18101;DHT22;9177;49.156;8.142;2022-09-17T03:51:10;21.90;97.10
18101;DHT22;9177;49.156;8.142;2022-09-17T03:53:37;21.90;97.10
18101;DHT22;9177;49.156;8.142;2022-09-17T03:56:05;21.90;97.10
18101;DHT22;9177;49.156;8.142;2022-09-17T03:58:33;21.90;97.10
18101;DHT22;9177;49.156;8.142;2022-09-17T04:01:00;21.90;97.10
18101;DHT22;9177;49.156;8.142;2022-09-17T04:03:28;21.90;97.20
18101;DHT22;9177;49.156;8.142;2022-09-17T04:05:55;21.90;97.10
18101;DHT22;9177;49.156;8.142;2022-09-17T04:08:23;21.90;97.10
18101;DHT22;9177;49.156;8.142;2022-09-17T04:10:50;21.90;97.20
18101;DHT22;9177;49.156;8.142;2022-09-17T04:13:19;21.90;97.20
18101;DHT22;9177;49.156;8.142;2022-09-17T04:15:46;21.90;97.20
18101;DHT22;9177;49.156;8.142;2022-09-17T04:18:13;21.90;97.10
18101;DHT22;9177;49.156;8.142;2022-09-17T04:20:41;21.90;97.10
18101;DHT22;9177;49.156;8.142;2022-09-17T04:23:09;21.90;97.10
18101;DHT22;9177;49.156;8.142;2022-09-17T04:25:37;21.90;97.10
18101;DHT22;9177;49.156;8.142;2022-09-17T04:28:03;21.90;97.20
18101;DHT22;9177;49.156;8.142;2022-09-17T04:30:32;21.90;97.20
18101;DHT22;9177;49.156;8.142;2022-09-17T04:32:59;21.90;97.10
18101;DHT22;9177;49.156;8.142;2022-09-17T04:35:26;21.90;97.10
18101;DHT22;9177;49.156;8.142;2022-09-17T04:37:54;21.90;97.10
18101;DHT22;9177;49.156;8.142;2022-09-17T04:40:21;21.90;97.20
18101;DHT22;9177;49.156;8.142;2022-09-17T04:42:51;21.90;97.10
18101;DHT22;9177;49.156;8.142;2022-09-17T04:45:18;21.90;97.20
18101;DHT22;9177;49.156;8.142;2022-09-17T04:47:46;21.90;97.10
18101;DHT22;9177;49.156;8.142;2022-09-17T04:50:20;21.90;97.10
18101;DHT22;9177;49.156;8.142;2022-09-17T04:52:48;21.90;97.10
18101;DHT22;9177;49.156;8.142;2022-09-17T04:55:15;21.90;97.10
18101;DHT22;9177;49.156;8.142;2022-09-17T04:57:45;21.90;97.20
18101;DHT22;9177;49.156;8.142;2022-09-17T05:00:13;21.90;97.10
18101;DHT22;9177;49.156;8.142;2022-09-17T05:02:43;21.90;97.10
18101;DHT22;9177;49.156;8.142;2022-09-17T05:05:12;21.90;97.10
18101;DHT22;9177;49.156;8.142;2022-09-17T05:07:40;21.90;97.10
18101;DHT22;9177;49.156;8.142;2022-09-17T05:10:09;21.90;97.10
18101;DHT22;9177;49.156;8.142;2022-09-17T05:12:36;21.90;97.10
18101;DHT22;9177;49.156;8.142;2022-09-17T05:15:04;21.90;97.10
18101;DHT22;9177;49.156;8.142;2022-09-17T05:17:31;21.90;97.10
18101;DHT22;9177;49.156;8.142;2022-09-17T05:19:58;21.90;97.20
18101;DHT22;9177;49.156;8.142;2022-09-17T05:22:26;21.90;97.10
18101;DHT22;9177;49.156;8.142;2022-09-17T05:24:54;21.90;97.20
18101;DHT22;9177;49.156;8.142;2022-09-17T05:27:21;21.90;97.20
18101;DHT22;9177;49.156;8.142;2022-09-17T05:29:48;21.90;97.20
18101;DHT22;9177;49.156;8.142;2022-09-17T05:32:15;21.90;97.20
18101;DHT22;9177;49.156;8.142;2022-09-17T05:34:42;21.90;97.20
18101;DHT22;9177;49.156;8.142;2022-09-17T05:37:09;21.90;97.10
18101;DHT22;9177;49.156;8.142;2022-09-17T05:39:37;21.90;97.20
18101;DHT22;9177;49.156;8.142;2022-09-17T05:42:05;21.90;97.20
18101;DHT22;9177;49.156;8.142;2022-09-17T05:44:32;21.80;97.10
18101;DHT22;9177;49.156;8.142;2022-09-17T05:46:58;21.80;97.10
18101;DHT22;9177;49.156;8.142;2022-09-17T05:49:26;21.80;97.20
18101;DHT22;9177;49.156;8.142;2022-09-17T05:51:53;21.80;97.20
18101;DHT22;9177;49.156;8.142;2022-09-17T05:54:19;21.80;97.10
18101;DHT22;9177;49.156;8.142;2022-09-17T05:56:55;21.90;97.50
18101;DHT22;9177;49.156;8.142;2022-09-17T05:59:21;21.80;97.10
18101;DHT22;9177;49.156;8.142;2022-09-17T06:01:49;21.80;97.20
18101;DHT22;9177;49.156;8.142;2022-09-17T06:04:16;21.80;97.20
18101;DHT22;9177;49.156;8.142;2022-09-17T06:06:43;21.80;97.20
18101;DHT22;9177;49.156;8.142;2022-09-17T06:09:10;21.80;97.20
18101;DHT22;9177;49.156;8.142;2022-09-17T06:11:37;21.90;97.20
18101;DHT22;9177;49.156;8.142;2022-09-17T06:14:06;21.80;97.20
18101;DHT22;9177;49.156;8.142;2022-09-17T06:16:33;21.80;97.20
18101;DHT22;9177;49.156;8.142;2022-09-17T06:19:02;21.80;97.20
18101;DHT22;9177;49.156;8.142;2022-09-17T06:21:30;21.90;97.20
18101;DHT22;9177;49.156;8.142;2022-09-17T06:23:57;21.80;97.20
18101;DHT22;9177;49.156;8.142;2022-09-17T06:26:24;21.80;97.20
18101;DHT22;9177;49.156;8.142;2022-09-17T06:28:51;21.80;97.20
18101;DHT22;9177;49.156;8.142;2022-09-17T06:31:19;21.80;97.20
18101;DHT22;9177;49.156;8.142;2022-09-17T06:33:47;21.80;97.20
18101;DHT22;9177;49.156;8.142;2022-09-17T06:36:14;21.80;97.20
18101;DHT22;9177;49.156;8.142;2022-09-17T06:38:41;21.80;97.20
18101;DHT22;9177;49.156;8.142;2022-09-17T06:41:08;21.80;97.20
18101;DHT22;9177;49.156;8.142;2022-09-17T06:43:37;21.80;97.20
18101;DHT22;9177;49.156;8.142;2022-09-17T06:46:04;21.80;97.20
18101;DHT22;9177;49.156;8.142;2022-09-17T06:48:36;21.90;97.30
18101;DHT22;9177;49.156;8.142;2022-09-17T06:51:05;21.90;97.20
18101;DHT22;9177;49.156;8.142;2022-09-17T06:53:32;21.90;97.30
18101;DHT22;9177;49.156;8.142;2022-09-17T06:56:01;21.90;97.30
18101;DHT22;9177;49.156;8.142;2022-09-17T06:58:29;21.90;97.20
18101;DHT22;9177;49.156;8.142;2022-09-17T07:00:58;21.90;97.30
18101;DHT22;9177;49.156;8.142;2022-09-17T07:03:26;21.90;97.20
18101;DHT22;9177;49.156;8.142;2022-09-17T07:05:55;21.90;97.20
18101;DHT22;9177;49.156;8.142;2022-09-17T07:08:22;22.00;97.60
18101;DHT22;9177;49.156;8.142;2022-09-17T07:10:50;22.00;97.20
18101;DHT22;9177;49.156;8.142;2022-09-17T07:13:17;22.00;97.20
18101;DHT22;9177;49.156;8.142;2022-09-17T07:15:51;22.00;97.10
18101;DHT22;9177;49.156;8.142;2022-09-17T07:18:18;22.00;97.10
18101;DHT22;9177;49.156;8.142;2022-09-17T07:20:51;22.10;97.20
18101;DHT22;9177;49.156;8.142;2022-09-17T07:23:21;22.10;97.20
18101;DHT22;9177;49.156;8.142;2022-09-17T07:25:51;22.10;97.10
18101;DHT22;9177;49.156;8.142;2022-09-17T07:28:18;22.10;97.00
18101;DHT22;9177;49.156;8.142;2022-09-17T07:30:45;22.10;97.10
18101;DHT22;9177;49.156;8.142;2022-09-17T07:33:11;22.10;97.10
18101;DHT22;9177;49.156;8.142;2022-09-17T07:35:38;22.10;97.10
18101;DHT22;9177;49.156;8.142;2022-09-17T07:38:05;22.10;97.20
18101;DHT22;9177;49.156;8.142;2022-09-17T07:40:34;22.10;97.20
18101;DHT22;9177;49.156;8.142;2022-09-17T07:43:02;22.10;97.10
18101;DHT22;9177;49.156;8.142;2022-09-17T07:45:29;22.10;97.10
18101;DHT22;9177;49.156;8.142;2022-09-17T07:47:56;22.10;97.10
18101;DHT22;9177;49.156;8.142;2022-09-17T07:50:23;22.10;97.20
18101;DHT22;9177;49.156;8.142;2022-09-17T07:52:49;22.10;97.20
18101;DHT22;9177;49.156;8.142;2022-09-17T07:55:16;22.10;97.20
18101;DHT22;9177;49.156;8.142;2022-09-17T07:57:50;22.10;97.20
18101;DHT22;9177;49.156;8.142;2022-09-17T08:00:17;22.10;97.20
18101;DHT22;9177;49.156;8.142;2022-09-17T08:02:43;22.10;97.30
18101;DHT22;9177;49.156;8.142;2022-09-17T08:05:10;22.10;97.30
18101;DHT22;9177;49.156;8.142;2022-09-17T08:07:37;22.10;97.30
18101;DHT22;9177;49.156;8.142;2022-09-17T08:10:05;22.10;97.30
18101;DHT22;9177;49.156;8.142;2022-09-17T08:12:32;22.10;97.30
18101;DHT22;9177;49.156;8.142;2022-09-17T08:15:00;22.20;97.30
18101;DHT22;9177;49.156;8.142;2022-09-17T08:17:28;22.20;97.20
18101;DHT22;9177;49.156;8.142;2022-09-17T08:19:55;22.30;97.20
18101;DHT22;9177;49.156;8.142;2022-09-17T08:22:22;22.30;97.10
18101;DHT22;9177;49.156;8.142;2022-09-17T08:24:49;22.30;97.10
18101;DHT22;9177;49.156;8.142;2022-09-17T08:27:15;22.40;97.10
18101;DHT22;9177;49.156;8.142;2022-09-17T08:29:43;22.40;97.00
18101;DHT22;9177;49.156;8.142;2022-09-17T08:32:11;22.40;97.00
18101;DHT22;9177;49.156;8.142;2022-09-17T08:34:38;22.40;97.00
18101;DHT22;9177;49.156;8.142;2022-09-17T08:37:05;22.40;96.90
18101;DHT22;9177;49.156;8.142;2022-09-17T08:39:32;22.50;96.90
18101;DHT22;9177;49.156;8.142;2022-09-17T08:42:07;22.50;96.90
18101;DHT22;9177;49.156;8.142;2022-09-17T08:44:39;22.50;96.90
18101;DHT22;9177;49.156;8.142;2022-09-17T08:47:15;22.50;96.90
18101;DHT22;9177;49.156;8.142;2022-09-17T08:49:48;22.50;97.40
18101;DHT22;9177;49.156;8.142;2022-09-17T08:55:27;22.50;97.00
18101;DHT22;9177;49.156;8.142;2022-09-17T09:00:52;22.60;96.90
18101;DHT22;9177;49.156;8.142;2022-09-17T09:03:31;22.50;96.90
18101;DHT22;9177;49.156;8.142;2022-09-17T09:06:02;22.60;96.90
18101;DHT22;9177;49.156;8.142;2022-09-17T09:08:32;22.60;96.90
18101;DHT22;9177;49.156;8.142;2022-09-17T09:11:03;22.60;96.90
18101;DHT22;9177;49.156;8.142;2022-09-17T09:13:32;22.60;96.90
18101;DHT22;9177;49.156;8.142;2022-09-17T09:16:06;22.60;96.90
18101;DHT22;9177;49.156;8.142;2022-09-17T09:18:39;22.70;96.90
18101;DHT22;9177;49.156;8.142;2022-09-17T09:21:18;22.60;96.90
18101;DHT22;9177;49.156;8.142;2022-09-17T09:23:51;22.60;97.00
18101;DHT22;9177;49.156;8.142;2022-09-17T09:26:20;22.60;97.00
18101;DHT22;9177;49.156;8.142;2022-09-17T09:29:02;22.50;97.10
18101;DHT22;9177;49.156;8.142;2022-09-17T09:31:50;22.50;97.10
18101;DHT22;9177;49.156;8.142;2022-09-17T09:34:25;22.40;97.20
18101;DHT22;9177;49.156;8.142;2022-09-17T09:37:00;22.40;97.20
18101;DHT22;9177;49.156;8.142;2022-09-17T09:39:33;22.50;97.20
18101;DHT22;9177;49.156;8.142;2022-09-17T09:42:08;22.50;97.20
18101;DHT22;9177;49.156;8.142;2022-09-17T09:44:36;22.40;97.20
18101;DHT22;9177;49.156;8.142;2022-09-17T09:47:23;22.50;97.20
18101;DHT22;9177;49.156;8.142;2022-09-17T09:50:09;22.50;97.10
18101;DHT22;9177;49.156;8.142;2022-09-17T09:52:52;22.50;97.10
18101;DHT22;9177;49.156;8.142;2022-09-17T09:58:33;22.60;97.10
18101;DHT22;9177;49.156;8.142;2022-09-17T10:01:00;22.50;97.10
18101;DHT22;9177;49.156;8.142;2022-09-17T10:03:30;22.50;97.10
18101;DHT22;9177;49.156;8.142;2022-09-17T10:06:01;22.50;97.20
18101;DHT22;9177;49.156;8.142;2022-09-17T10:08:29;22.50;97.20
18101;DHT22;9177;49.156;8.142;2022-09-17T10:10:59;22.40;97.20
18101;DHT22;9177;49.156;8.142;2022-09-17T10:13:28;22.40;97.30
18101;DHT22;9177;49.156;8.142;2022-09-17T10:15:55;22.50;97.20
18101;DHT22;9177;49.156;8.142;2022-09-17T10:18:23;22.50;97.20
18101;DHT22;9177;49.156;8.142;2022-09-17T10:20:55;22.40;97.30
18101;DHT22;9177;49.156;8.142;2022-09-17T10:23:26;22.40;97.30
18101;DHT22;9177;49.156;8.142;2022-09-17T10:25:54;22.40;97.40
18101;DHT22;9177;49.156;8.142;2022-09-17T10:28:34;22.40;97.40
18101;DHT22;9177;49.156;8.142;2022-09-17T10:31:05;22.40;97.40
18101;DHT22;9177;49.156;8.142;2022-09-17T10:33:40;22.40;97.30
18101;DHT22;9177;49.156;8.142;2022-09-17T10:36:16;22.40;97.40
18101;DHT22;9177;49.156;8.142;2022-09-17T10:38:45;22.40;97.50
18101;DHT22;9177;49.156;8.142;2022-09-17T10:41:15;22.40;97.60
18101;DHT22;9177;49.156;8.142;2022-09-17T10:43:43;22.30;97.60
18101;DHT22;9177;49.156;8.142;2022-09-17T10:46:15;22.40;97.70
18101;DHT22;9177;49.156;8.142;2022-09-17T10:48:45;22.30;97.60
18101;DHT22;9177;49.156;8.142;2022-09-17T10:51:23;22.30;97.70
18101;DHT22;9177;49.156;8.142;2022-09-17T10:54:17;22.30;97.80
18101;DHT22;9177;49.156;8.142;2022-09-17T10:56:51;22.30;97.90
18101;DHT22;9177;49.156;8.142;2022-09-17T10:59:36;22.30;97.80
18101;DHT22;9177;49.156;8.142;2022-09-17T11:05:32;22.30;97.80
18101;DHT22;9177;49.156;8.142;2022-09-17T11:08:09;22.30;97.60
18101;DHT22;9177;49.156;8.142;2022-09-17T11:10:46;22.30;97.60
18101;DHT22;9177;49.156;8.142;2022-09-17T11:13:23;22.30;97.60
18101;DHT22;9177;49.156;8.142;2022-09-17T11:16:04;22.30;97.60
18101;DHT22;9177;49.156;8.142;2022-09-17T11:18:39;22.20;97.60
18101;DHT22;9177;49.156;8.142;2022-09-17T11:21:36;22.20;97.70
18101;DHT22;9177;49.156;8.142;2022-09-17T11:24:38;22.20;97.70
18101;DHT22;9177;49.156;8.142;2022-09-17T11:27:30;22.20;97.80
18101;DHT22;9177;49.156;8.142;2022-09-17T11:30:08;22.20;97.90
18101;DHT22;9177;49.156;8.142;2022-09-17T11:32:49;22.10;97.90
18101;DHT22;9177;49.156;8.142;2022-09-17T11:35:23;22.10;97.90
18101;DHT22;9177;49.156;8.142;2022-09-17T11:37:57;22.10;98.00
18101;DHT22;9177;49.156;8.142;2022-09-17T11:40:33;22.10;98.00
18101;DHT22;9177;49.156;8.142;2022-09-17T11:43:10;22.10;98.00
18101;DHT22;9177;49.156;8.142;2022-09-17T11:45:43;22.10;98.10
18101;DHT22;9177;49.156;8.142;2022-09-17T11:48:16;22.10;98.20
18101;DHT22;9177;49.156;8.142;2022-09-17T11:50:46;22.10;98.20
18101;DHT22;9177;49.156;8.142;2022-09-17T11:53:20;22.10;98.20
18101;DHT22;9177;49.156;8.142;2022-09-17T11:55:51;22.10;98.20
18101;DHT22;9177;49.156;8.142;2022-09-17T11:58:27;22.10;98.40
18101;DHT22;9177;49.156;8.142;2022-09-17T12:01:01;22.10;98.20
18101;DHT22;9177;49.156;8.142;2022-09-17T12:03:39;22.10;98.60
18101;DHT22;9177;49.156;8.142;2022-09-17T12:06:10;22.10;98.30
18101;DHT22;9177;49.156;8.142;2022-09-17T12:08:44;22.10;98.20
18101;DHT22;9177;49.156;8.142;2022-09-17T12:11:18;22.10;98.20
18101;DHT22;9177;49.156;8.142;2022-09-17T12:13:49;22.10;98.20
18101;DHT22;9177;49.156;8.142;2022-09-17T12:16:20;22.20;98.30
18101;DHT22;9177;49.156;8.142;2022-09-17T12:18:56;22.20;98.50
18101;DHT22;9177;49.156;8.142;2022-09-17T12:21:29;22.20;98.60
18101;DHT22;9177;49.156;8.142;2022-09-17T12:24:05;22.20;98.60
18101;DHT22;9177;49.156;8.142;2022-09-17T12:26:47;22.20;98.60
18101;DHT22;9177;49.156;8.142;2022-09-17T12:29:36;22.20;98.50
18101;DHT22;9177;49.156;8.142;2022-09-17T12:32:26;22.20;98.50
18101;DHT22;9177;49.156;8.142;2022-09-17T12:35:02;22.20;98.60
18101;DHT22;9177;49.156;8.142;2022-09-17T12:37:38;22.20;98.60
18101;DHT22;9177;49.156;8.142;2022-09-17T12:40:17;22.20;98.70
18101;DHT22;9177;49.156;8.142;2022-09-17T12:43:09;22.20;98.80
18101;DHT22;9177;49.156;8.142;2022-09-17T12:45:50;22.20;99.00
18101;DHT22;9177;49.156;8.142;2022-09-17T12:48:32;22.20;99.10
18101;DHT22;9177;49.156;8.142;2022-09-17T12:51:09;22.30;99.10
18101;DHT22;9177;49.156;8.142;2022-09-17T12:53:42;22.30;99.00
18101;DHT22;9177;49.156;8.142;2022-09-17T12:56:22;22.40;99.00
18101;DHT22;9177;49.156;8.142;2022-09-17T12:59:03;22.40;98.80
18101;DHT22;9177;49.156;8.142;2022-09-17T13:01:37;22.50;98.80
18101;DHT22;9177;49.156;8.142;2022-09-17T13:04:13;22.50;98.80
18101;DHT22;9177;49.156;8.142;2022-09-17T13:07:02;22.50;98.80
18101;DHT22;9177;49.156;8.142;2022-09-17T13:10:07;22.60;98.90
18101;DHT22;9177;49.156;8.142;2022-09-17T13:12:41;22.70;98.80
18101;DHT22;9177;49.156;8.142;2022-09-17T13:15:49;22.80;98.60
18101;DHT22;9177;49.156;8.142;2022-09-17T13:18:24;22.90;98.40
18101;DHT22;9177;49.156;8.142;2022-09-17T13:21:02;23.10;98.30
18101;DHT22;9177;49.156;8.142;2022-09-17T13:23:37;23.20;98.10
18101;DHT22;9177;49.156;8.142;2022-09-17T13:26:05;23.30;98.00
18101;DHT22;9177;49.156;8.142;2022-09-17T13:28:39;23.30;97.90
18101;DHT22;9177;49.156;8.142;2022-09-17T13:31:06;23.50;97.90
18101;DHT22;9177;49.156;8.142;2022-09-17T13:33:53;23.50;97.80
18101;DHT22;9177;49.156;8.142;2022-09-17T13:36:40;23.50;97.70
18101;DHT22;9177;49.156;8.142;2022-09-17T13:39:10;23.40;97.70
18101;DHT22;9177;49.156;8.142;2022-09-17T13:41:40;23.30;97.60
18101;DHT22;9177;49.156;8.142;2022-09-17T13:44:09;23.30;97.50
18101;DHT22;9177;49.156;8.142;2022-09-17T13:46:37;23.20;97.50
18101;DHT22;9177;49.156;8.142;2022-09-17T13:49:13;23.10;97.50
18101;DHT22;9177;49.156;8.142;2022-09-17T13:51:47;23.00;97.40
18101;DHT22;9177;49.156;8.142;2022-09-17T13:54:16;23.00;97.50
18101;DHT22;9177;49.156;8.142;2022-09-17T13:56:46;23.00;97.60
18101;DHT22;9177;49.156;8.142;2022-09-17T13:59:17;23.00;97.50
18101;DHT22;9177;49.156;8.142;2022-09-17T14:02:00;23.10;97.40
18101;DHT22;9177;49.156;8.142;2022-09-17T14:04:50;23.20;97.40
18101;DHT22;9177;49.156;8.142;2022-09-17T14:07:31;23.10;97.30
18101;DHT22;9177;49.156;8.142;2022-09-17T14:09:59;23.20;97.80
18101;DHT22;9177;49.156;8.142;2022-09-17T14:12:50;23.30;97.30
18101;DHT22;9177;49.156;8.142;2022-09-17T14:15:57;23.40;97.10
18101;DHT22;9177;49.156;8.142;2022-09-17T14:18:42;23.60;96.90
18101;DHT22;9177;49.156;8.142;2022-09-17T14:21:21;23.70;96.90
18101;DHT22;9177;49.156;8.142;2022-09-17T14:23:54;23.80;96.80
18101;DHT22;9177;49.156;8.142;2022-09-17T14:26:32;23.90;96.70
18101;DHT22;9177;49.156;8.142;2022-09-17T14:29:06;24.00;96.70
18101;DHT22;9177;49.156;8.142;2022-09-17T14:31:38;24.10;96.60
18101;DHT22;9177;49.156;8.142;2022-09-17T14:34:07;24.10;96.60
18101;DHT22;9177;49.156;8.142;2022-09-17T14:36:37;24.00;96.60
18101;DHT22;9177;49.156;8.142;2022-09-17T14:39:09;24.10;96.60
18101;DHT22;9177;49.156;8.142;2022-09-17T14:41:43;24.10;96.60
18101;DHT22;9177;49.156;8.142;2022-09-17T14:44:13;24.00;96.60
18101;DHT22;9177;49.156;8.142;2022-09-17T14:46:45;23.90;96.70
18101;DHT22;9177;49.156;8.142;2022-09-17T14:49:19;23.80;96.80
18101;DHT22;9177;49.156;8.142;2022-09-17T14:51:48;23.80;96.80
18101;DHT22;9177;49.156;8.142;2022-09-17T14:54:20;23.70;96.90
18101;DHT22;9177;49.156;8.142;2022-09-17T14:56:58;23.60;97.00
18101;DHT22;9177;49.156;8.142;2022-09-17T15:02:28;23.50;97.20
18101;DHT22;9177;49.156;8.142;2022-09-17T15:04:57;23.50;97.10
18101;DHT22;9177;49.156;8.142;2022-09-17T15:07:26;23.50;97.10
18101;DHT22;9177;49.156;8.142;2022-09-17T15:09:53;23.60;97.00
18101;DHT22;9177;49.156;8.142;2022-09-17T15:12:24;23.60;97.00
18101;DHT22;9177;49.156;8.142;2022-09-17T15:14:53;23.60;97.10
18101;DHT22;9177;49.156;8.142;2022-09-17T15:17:21;23.50;97.10
18101;DHT22;9177;49.156;8.142;2022-09-17T15:19:50;23.40;97.20
18101;DHT22;9177;49.156;8.142;2022-09-17T15:22:23;23.40;97.30
18101;DHT22;9177;49.156;8.142;2022-09-17T15:24:55;23.40;97.70
18101;DHT22;9177;49.156;8.142;2022-09-17T15:27:26;23.40;97.30
18101;DHT22;9177;49.156;8.142;2022-09-17T15:29:58;23.30;97.40
18101;DHT22;9177;49.156;8.142;2022-09-17T15:32:30;23.20;97.50
18101;DHT22;9177;49.156;8.142;2022-09-17T15:35:19;23.20;97.60
18101;DHT22;9177;49.156;8.142;2022-09-17T15:37:47;23.10;97.70
18101;DHT22;9177;49.156;8.142;2022-09-17T15:40:28;23.00;97.80
18101;DHT22;9177;49.156;8.142;2022-09-17T15:43:01;23.00;97.90
18101;DHT22;9177;49.156;8.142;2022-09-17T15:45:30;22.90;98.00
18101;DHT22;9177;49.156;8.142;2022-09-17T15:48:02;22.80;98.00
18101;DHT22;9177;49.156;8.142;2022-09-17T15:50:31;22.80;98.10
18101;DHT22;9177;49.156;8.142;2022-09-17T15:53:19;22.80;98.20
18101;DHT22;9177;49.156;8.142;2022-09-17T15:56:00;22.70;98.20
18101;DHT22;9177;49.156;8.142;2022-09-17T15:58:30;22.70;98.30
18101;DHT22;9177;49.156;8.142;2022-09-17T16:04:08;22.60;98.30
18101;DHT22;9177;49.156;8.142;2022-09-17T16:06:47;22.60;98.40
18101;DHT22;9177;49.156;8.142;2022-09-17T16:09:44;22.50;98.40
18101;DHT22;9177;49.156;8.142;2022-09-17T16:12:16;22.50;98.40
18101;DHT22;9177;49.156;8.142;2022-09-17T16:14:45;22.60;98.50
18101;DHT22;9177;49.156;8.142;2022-09-17T16:17:31;22.70;98.40
18101;DHT22;9177;49.156;8.142;2022-09-17T16:20:06;22.70;98.30
18101;DHT22;9177;49.156;8.142;2022-09-17T16:22:34;22.70;98.20
18101;DHT22;9177;49.156;8.142;2022-09-17T16:25:01;22.80;98.20
18101;DHT22;9177;49.156;8.142;2022-09-17T16:27:34;22.90;98.10
18101;DHT22;9177;49.156;8.142;2022-09-17T16:30:04;22.90;98.10
18101;DHT22;9177;49.156;8.142;2022-09-17T16:32:31;22.90;98.10
18101;DHT22;9177;49.156;8.142;2022-09-17T16:35:00;22.90;98.00